sensor_id;sensor_type;location;lat;lon;timestamp;P1;durP1;ratioP1;P2;durP2;ratioP2
26516;SDS011;14190;51.342;6.338;2023-06-14T00:00:39;13.45;;;9.23;;
26516;SDS011;14190;51.342;6.338;2023-06-14T00:03:07;12.18;;;8.03;;
26516;SDS011;14190;51.342;6.338;2023-06-14T00:05:36;16.75;;;9.08;;
26516;SDS011;14190;51.342;6.338;2023-06-14T00:08:08;12.82;;;7.70;;
26516;SDS011;14190;51.342;6.338;2023-06-14T00:10:36;10.88;;;8.15;;
26516;SDS011;14190;51.342;6.338;2023-06-14T00:13:04;10.58;;;8.65;;
26516;SDS011;14190;51.342;6.338;2023-06-14T00:15:33;13.50;;;10.20;;
26516;SDS011;14190;51.342;6.338;2023-06-14T00:18:01;12.73;;;9.58;;
26516;SDS011;14190;51.342;6.338;2023-06-14T00:20:29;15.72;;;9.55;;
26516;SDS011;14190;51.342;6.338;2023-06-14T00:23:00;16.85;;;9.48;;
26516;SDS011;14190;51.342;6.338;2023-06-14T00:25:28;15.50;;;10.03;;
26516;SDS011;14190;51.342;6.338;2023-06-14T00:27:56;14.35;;;10.98;;
26516;SDS011;14190;51.342;6.338;2023-06-14T00:30:24;16.15;;;11.18;;
26516;SDS011;14190;51.342;6.338;2023-06-14T00:32:51;15.48;;;10.32;;
26516;SDS011;14190;51.342;6.338;2023-06-14T00:35:19;11.38;;;9.98;;
26516;SDS011;14190;51.342;6.338;2023-06-14T00:37:46;12.18;;;9.85;;
26516;SDS011;14190;51.342;6.338;2023-06-14T00:40:13;13.62;;;10.25;;
26516;SDS011;14190;51.342;6.338;2023-06-14T00:42:41;16.80;;;8.70;;
26516;SDS011;14190;51.342;6.338;2023-06-14T00:45:09;16.48;;;9.90;;
26516;SDS011;14190;51.342;6.338;2023-06-14T00:47:37;16.55;;;9.13;;
26516;SDS011;14190;51.342;6.338;2023-06-14T00:50:08;15.18;;;10.58;;
26516;SDS011;14190;51.342;6.338;2023-06-14T00:52:36;14.30;;;10.72;;
26516;SDS011;14190;51.342;6.338;2023-06-14T00:55:03;19.07;;;11.30;;
26516;SDS011;14190;51.342;6.338;2023-06-14T00:57:31;15.00;;;9.63;;
26516;SDS011;14190;51.342;6.338;2023-06-14T00:59:59;16.52;;;10.10;;
26516;SDS011;14190;51.342;6.338;2023-06-14T01:02:26;14.60;;;10.38;;
26516;SDS011;14190;51.342;6.338;2023-06-14T01:04:53;11.50;;;10.18;;
26516;SDS011;14190;51.342;6.338;2023-06-14T01:07:25;14.83;;;9.88;;
26516;SDS011;14190;51.342;6.338;2023-06-14T01:15:00;15.95;;;10.68;;
26516;SDS011;14190;51.342;6.338;2023-06-14T01:17:29;10.25;;;9.23;;
26516;SDS011;14190;51.342;6.338;2023-06-14T01:20:01;14.63;;;10.40;;
26516;SDS011;14190;51.342;6.338;2023-06-14T01:22:28;11.57;;;9.08;;
26516;SDS011;14190;51.342;6.338;2023-06-14T01:24:56;8.90;;;7.87;;
26516;SDS011;14190;51.342;6.338;2023-06-14T01:27:24;14.10;;;8.10;;
26516;SDS011;14190;51.342;6.338;2023-06-14T01:29:55;16.95;;;8.63;;
26516;SDS011;14190;51.342;6.338;2023-06-14T01:32:24;12.05;;;8.98;;
26516;SDS011;14190;51.342;6.338;2023-06-14T01:34:52;12.95;;;8.08;;
26516;SDS011;14190;51.342;6.338;2023-06-14T01:37:20;13.60;;;7.85;;
26516;SDS011;14190;51.342;6.338;2023-06-14T01:39:48;13.38;;;7.37;;
26516;SDS011;14190;51.342;6.338;2023-06-14T01:42:18;12.85;;;7.58;;
26516;SDS011;14190;51.342;6.338;2023-06-14T01:44:46;9.88;;;7.15;;
26516;SDS011;14190;51.342;6.338;2023-06-14T01:47:14;10.55;;;7.58;;
26516;SDS011;14190;51.342;6.338;2023-06-14T01:49:42;12.50;;;8.18;;
26516;SDS011;14190;51.342;6.338;2023-06-14T01:52:09;10.98;;;8.10;;
26516;SDS011;14190;51.342;6.338;2023-06-14T01:54:37;13.75;;;8.33;;
26516;SDS011;14190;51.342;6.338;2023-06-14T01:57:08;13.03;;;7.50;;
26516;SDS011;14190;51.342;6.338;2023-06-14T01:59:37;12.45;;;7.80;;
26516;SDS011;14190;51.342;6.338;2023-06-14T02:02:04;17.00;;;8.10;;
26516;SDS011;14190;51.342;6.338;2023-06-14T02:04:31;9.50;;;7.40;;
26516;SDS011;14190;51.342;6.338;2023-06-14T02:06:59;12.63;;;7.58;;
26516;SDS011;14190;51.342;6.338;2023-06-14T02:09:26;11.30;;;7.47;;
26516;SDS011;14190;51.342;6.338;2023-06-14T02:11:54;12.07;;;7.22;;
26516;SDS011;14190;51.342;6.338;2023-06-14T02:14:21;14.45;;;8.58;;
26516;SDS011;14190;51.342;6.338;2023-06-14T02:16:49;10.45;;;8.55;;
26516;SDS011;14190;51.342;6.338;2023-06-14T02:19:18;8.13;;;6.95;;
26516;SDS011;14190;51.342;6.338;2023-06-14T02:21:47;10.28;;;8.88;;
26516;SDS011;14190;51.342;6.338;2023-06-14T02:24:14;10.50;;;7.45;;
26516;SDS011;14190;51.342;6.338;2023-06-14T02:26:42;15.93;;;9.00;;
26516;SDS011;14190;51.342;6.338;2023-06-14T02:29:11;11.00;;;8.08;;
26516;SDS011;14190;51.342;6.338;2023-06-14T02:31:40;14.70;;;9.20;;
26516;SDS011;14190;51.342;6.338;2023-06-14T02:34:08;21.20;;;9.60;;
26516;SDS011;14190;51.342;6.338;2023-06-14T02:36:35;14.70;;;8.85;;
26516;SDS011;14190;51.342;6.338;2023-06-14T02:39:04;22.90;;;9.55;;
26516;SDS011;14190;51.342;6.338;2023-06-14T02:41:31;22.15;;;9.25;;
26516;SDS011;14190;51.342;6.338;2023-06-14T02:43:59;17.05;;;8.83;;
26516;SDS011;14190;51.342;6.338;2023-06-14T02:46:28;20.52;;;8.50;;
26516;SDS011;14190;51.342;6.338;2023-06-14T02:48:55;20.68;;;9.38;;
26516;SDS011;14190;51.342;6.338;2023-06-14T02:51:23;25.75;;;9.20;;
26516;SDS011;14190;51.342;6.338;2023-06-14T02:53:50;17.40;;;9.18;;
26516;SDS011;14190;51.342;6.338;2023-06-14T02:56:18;15.75;;;9.85;;
26516;SDS011;14190;51.342;6.338;2023-06-14T02:58:45;13.98;;;9.33;;
26516;SDS011;14190;51.342;6.338;2023-06-14T03:01:15;11.45;;;8.65;;
26516;SDS011;14190;51.342;6.338;2023-06-14T03:03:43;20.80;;;9.60;;
26516;SDS011;14190;51.342;6.338;2023-06-14T03:06:11;17.77;;;9.58;;
26516;SDS011;14190;51.342;6.338;2023-06-14T03:08:41;10.32;;;9.23;;
26516;SDS011;14190;51.342;6.338;2023-06-14T03:11:10;18.35;;;9.83;;
26516;SDS011;14190;51.342;6.338;2023-06-14T03:13:37;15.60;;;9.88;;
26516;SDS011;14190;51.342;6.338;2023-06-14T03:16:05;14.83;;;8.95;;
26516;SDS011;14190;51.342;6.338;2023-06-14T03:21:02;16.20;;;10.28;;
26516;SDS011;14190;51.342;6.338;2023-06-14T03:23:30;15.35;;;8.55;;
26516;SDS011;14190;51.342;6.338;2023-06-14T03:25:58;24.82;;;10.03;;
26516;SDS011;14190;51.342;6.338;2023-06-14T03:28:26;23.27;;;10.98;;
26516;SDS011;14190;51.342;6.338;2023-06-14T03:30:54;35.13;;;11.33;;
26516;SDS011;14190;51.342;6.338;2023-06-14T03:33:22;35.58;;;11.15;;
26516;SDS011;14190;51.342;6.338;2023-06-14T03:35:49;31.37;;;11.83;;
26516;SDS011;14190;51.342;6.338;2023-06-14T03:38:17;28.25;;;10.75;;
26516;SDS011;14190;51.342;6.338;2023-06-14T03:40:45;32.48;;;12.07;;
26516;SDS011;14190;51.342;6.338;2023-06-14T03:43:13;30.62;;;10.00;;
26516;SDS011;14190;51.342;6.338;2023-06-14T03:45:40;30.10;;;9.40;;
26516;SDS011;14190;51.342;6.338;2023-06-14T03:48:08;25.00;;;9.23;;
26516;SDS011;14190;51.342;6.338;2023-06-14T03:50:37;17.98;;;9.00;;
26516;SDS011;14190;51.342;6.338;2023-06-14T03:53:09;23.52;;;9.25;;
26516;SDS011;14190;51.342;6.338;2023-06-14T03:55:38;19.15;;;9.35;;
26516;SDS011;14190;51.342;6.338;2023-06-14T03:58:05;21.77;;;8.83;;
26516;SDS011;14190;51.342;6.338;2023-06-14T04:00:34;24.23;;;9.33;;
26516;SDS011;14190;51.342;6.338;2023-06-14T04:03:02;13.58;;;9.00;;
26516;SDS011;14190;51.342;6.338;2023-06-14T04:05:31;13.38;;;8.80;;
26516;SDS011;14190;51.342;6.338;2023-06-14T04:07:59;20.00;;;8.90;;
26516;SDS011;14190;51.342;6.338;2023-06-14T04:10:28;15.48;;;8.28;;
26516;SDS011;14190;51.342;6.338;2023-06-14T04:12:56;17.90;;;8.33;;
26516;SDS011;14190;51.342;6.338;2023-06-14T04:15:23;13.18;;;7.67;;
26516;SDS011;14190;51.342;6.338;2023-06-14T04:17:52;17.48;;;7.35;;
26516;SDS011;14190;51.342;6.338;2023-06-14T04:20:22;15.88;;;7.00;;
26516;SDS011;14190;51.342;6.338;2023-06-14T04:22:51;8.63;;;6.70;;
26516;SDS011;14190;51.342;6.338;2023-06-14T04:25:19;9.93;;;6.97;;
26516;SDS011;14190;51.342;6.338;2023-06-14T04:27:47;11.90;;;7.37;;
26516;SDS011;14190;51.342;6.338;2023-06-14T04:30:14;11.50;;;6.62;;
26516;SDS011;14190;51.342;6.338;2023-06-14T04:32:43;13.15;;;7.53;;
26516;SDS011;14190;51.342;6.338;2023-06-14T04:35:12;12.18;;;6.72;;
26516;SDS011;14190;51.342;6.338;2023-06-14T04:37:41;14.30;;;6.67;;
26516;SDS011;14190;51.342;6.338;2023-06-14T04:40:10;9.98;;;6.55;;
26516;SDS011;14190;51.342;6.338;2023-06-14T04:42:38;10.05;;;6.85;;
26516;SDS011;14190;51.342;6.338;2023-06-14T04:45:08;10.78;;;6.83;;
26516;SDS011;14190;51.342;6.338;2023-06-14T04:47:37;12.55;;;6.67;;
26516;SDS011;14190;51.342;6.338;2023-06-14T04:50:06;16.35;;;6.42;;
26516;SDS011;14190;51.342;6.338;2023-06-14T04:52:34;12.78;;;6.35;;
26516;SDS011;14190;51.342;6.338;2023-06-14T04:55:03;12.28;;;5.95;;
26516;SDS011;14190;51.342;6.338;2023-06-14T04:57:32;8.53;;;6.85;;
26516;SDS011;14190;51.342;6.338;2023-06-14T04:59:59;11.57;;;6.83;;
26516;SDS011;14190;51.342;6.338;2023-06-14T05:02:28;16.15;;;7.62;;
26516;SDS011;14190;51.342;6.338;2023-06-14T05:04:58;10.98;;;6.37;;
26516;SDS011;14190;51.342;6.338;2023-06-14T05:07:27;16.57;;;6.05;;
26516;SDS011;14190;51.342;6.338;2023-06-14T05:09:56;15.13;;;6.47;;
26516;SDS011;14190;51.342;6.338;2023-06-14T05:12:23;10.40;;;6.40;;
26516;SDS011;14190;51.342;6.338;2023-06-14T05:14:51;9.05;;;6.03;;
26516;SDS011;14190;51.342;6.338;2023-06-14T05:17:20;15.53;;;6.55;;
26516;SDS011;14190;51.342;6.338;2023-06-14T05:19:47;10.43;;;6.85;;
26516;SDS011;14190;51.342;6.338;2023-06-14T05:22:14;10.98;;;5.83;;
26516;SDS011;14190;51.342;6.338;2023-06-14T05:24:42;9.45;;;5.65;;
26516;SDS011;14190;51.342;6.338;2023-06-14T05:27:09;9.75;;;6.42;;
26516;SDS011;14190;51.342;6.338;2023-06-14T05:29:37;8.48;;;5.92;;
26516;SDS011;14190;51.342;6.338;2023-06-14T05:32:04;10.80;;;5.45;;
26516;SDS011;14190;51.342;6.338;2023-06-14T05:34:32;13.88;;;5.47;;
26516;SDS011;14190;51.342;6.338;2023-06-14T05:36:59;16.35;;;5.90;;
26516;SDS011;14190;51.342;6.338;2023-06-14T05:39:27;18.05;;;6.90;;
26516;SDS011;14190;51.342;6.338;2023-06-14T05:41:54;8.00;;;5.37;;
26516;SDS011;14190;51.342;6.338;2023-06-14T05:44:22;10.08;;;5.58;;
26516;SDS011;14190;51.342;6.338;2023-06-14T05:46:49;11.80;;;5.50;;
26516;SDS011;14190;51.342;6.338;2023-06-14T05:49:17;11.97;;;6.20;;
26516;SDS011;14190;51.342;6.338;2023-06-14T05:51:44;13.70;;;5.55;;
26516;SDS011;14190;51.342;6.338;2023-06-14T05:54:11;16.23;;;5.87;;
26516;SDS011;14190;51.342;6.338;2023-06-14T05:56:39;13.32;;;5.20;;
26516;SDS011;14190;51.342;6.338;2023-06-14T05:59:06;10.98;;;5.55;;
26516;SDS011;14190;51.342;6.338;2023-06-14T06:01:33;15.15;;;6.15;;
26516;SDS011;14190;51.342;6.338;2023-06-14T06:04:03;10.75;;;5.70;;
26516;SDS011;14190;51.342;6.338;2023-06-14T06:06:30;14.07;;;5.60;;
26516;SDS011;14190;51.342;6.338;2023-06-14T06:08:58;10.00;;;5.92;;
26516;SDS011;14190;51.342;6.338;2023-06-14T06:11:26;9.58;;;5.22;;
26516;SDS011;14190;51.342;6.338;2023-06-14T06:13:54;12.03;;;5.42;;
26516;SDS011;14190;51.342;6.338;2023-06-14T06:16:21;7.95;;;5.15;;
26516;SDS011;14190;51.342;6.338;2023-06-14T06:18:49;12.93;;;5.60;;
26516;SDS011;14190;51.342;6.338;2023-06-14T06:21:16;12.35;;;5.00;;
26516;SDS011;14190;51.342;6.338;2023-06-14T06:23:43;7.17;;;4.65;;
26516;SDS011;14190;51.342;6.338;2023-06-14T06:26:11;10.13;;;5.78;;
26516;SDS011;14190;51.342;6.338;2023-06-14T06:28:38;14.30;;;5.22;;
26516;SDS011;14190;51.342;6.338;2023-06-14T06:31:05;14.60;;;5.62;;
26516;SDS011;14190;51.342;6.338;2023-06-14T06:33:33;12.47;;;5.20;;
26516;SDS011;14190;51.342;6.338;2023-06-14T06:36:00;10.93;;;4.78;;
26516;SDS011;14190;51.342;6.338;2023-06-14T06:38:27;10.85;;;4.92;;
26516;SDS011;14190;51.342;6.338;2023-06-14T06:40:55;10.68;;;5.37;;
26516;SDS011;14190;51.342;6.338;2023-06-14T06:43:23;13.03;;;5.58;;
26516;SDS011;14190;51.342;6.338;2023-06-14T06:45:50;11.22;;;4.85;;
26516;SDS011;14190;51.342;6.338;2023-06-14T06:48:17;10.15;;;4.90;;
26516;SDS011;14190;51.342;6.338;2023-06-14T06:50:45;13.38;;;5.85;;
26516;SDS011;14190;51.342;6.338;2023-06-14T06:53:12;5.87;;;4.30;;
26516;SDS011;14190;51.342;6.338;2023-06-14T06:55:40;5.83;;;4.60;;
26516;SDS011;14190;51.342;6.338;2023-06-14T06:58:07;9.63;;;4.65;;
26516;SDS011;14190;51.342;6.338;2023-06-14T07:00:34;14.38;;;4.70;;
26516;SDS011;14190;51.342;6.338;2023-06-14T07:03:02;7.95;;;4.15;;
26516;SDS011;14190;51.342;6.338;2023-06-14T07:05:30;7.45;;;4.33;;
26516;SDS011;14190;51.342;6.338;2023-06-14T07:07:58;10.45;;;4.67;;
26516;SDS011;14190;51.342;6.338;2023-06-14T07:10:25;13.53;;;4.45;;
26516;SDS011;14190;51.342;6.338;2023-06-14T07:12:53;17.05;;;4.65;;
26516;SDS011;14190;51.342;6.338;2023-06-14T07:15:20;11.05;;;4.75;;
26516;SDS011;14190;51.342;6.338;2023-06-14T07:17:48;8.05;;;3.67;;
26516;SDS011;14190;51.342;6.338;2023-06-14T07:20:15;10.23;;;3.15;;
26516;SDS011;14190;51.342;6.338;2023-06-14T07:22:43;7.80;;;3.90;;
26516;SDS011;14190;51.342;6.338;2023-06-14T07:25:10;11.73;;;3.85;;
26516;SDS011;14190;51.342;6.338;2023-06-14T07:27:42;6.20;;;3.20;;
26516;SDS011;14190;51.342;6.338;2023-06-14T07:30:09;5.97;;;3.25;;
26516;SDS011;14190;51.342;6.338;2023-06-14T07:32:37;5.87;;;2.92;;
26516;SDS011;14190;51.342;6.338;2023-06-14T07:35:06;6.03;;;3.00;;
26516;SDS011;14190;51.342;6.338;2023-06-14T07:37:34;3.85;;;2.98;;
26516;SDS011;14190;51.342;6.338;2023-06-14T07:40:01;7.78;;;2.85;;
26516;SDS011;14190;51.342;6.338;2023-06-14T07:42:30;5.25;;;2.60;;
26516;SDS011;14190;51.342;6.338;2023-06-14T07:44:57;5.47;;;2.35;;
26516;SDS011;14190;51.342;6.338;2023-06-14T07:47:25;7.92;;;2.85;;
26516;SDS011;14190;51.342;6.338;2023-06-14T07:49:54;3.67;;;2.60;;
26516;SDS011;14190;51.342;6.338;2023-06-14T07:52:21;4.67;;;2.95;;
26516;SDS011;14190;51.342;6.338;2023-06-14T07:54:48;3.20;;;2.90;;
26516;SDS011;14190;51.342;6.338;2023-06-14T07:57:16;6.40;;;2.70;;
26516;SDS011;14190;51.342;6.338;2023-06-14T07:59:45;6.05;;;2.37;;
26516;SDS011;14190;51.342;6.338;2023-06-14T08:02:13;7.78;;;2.77;;
26516;SDS011;14190;51.342;6.338;2023-06-14T08:04:41;6.65;;;2.90;;
26516;SDS011;14190;51.342;6.338;2023-06-14T08:07:09;6.12;;;2.17;;
26516;SDS011;14190;51.342;6.338;2023-06-14T08:09:36;5.83;;;2.20;;
26516;SDS011;14190;51.342;6.338;2023-06-14T08:12:06;5.07;;;2.00;;
26516;SDS011;14190;51.342;6.338;2023-06-14T08:14:35;6.95;;;1.87;;
26516;SDS011;14190;51.342;6.338;2023-06-14T08:17:03;2.17;;;1.92;;
26516;SDS011;14190;51.342;6.338;2023-06-14T08:19:31;3.10;;;1.98;;
26516;SDS011;14190;51.342;6.338;2023-06-14T08:21:58;2.80;;;2.02;;
26516;SDS011;14190;51.342;6.338;2023-06-14T08:24:26;7.55;;;2.55;;
26516;SDS011;14190;51.342;6.338;2023-06-14T08:26:53;7.05;;;2.47;;
26516;SDS011;14190;51.342;6.338;2023-06-14T08:29:21;2.30;;;1.90;;
26516;SDS011;14190;51.342;6.338;2023-06-14T08:31:48;3.15;;;1.98;;
26516;SDS011;14190;51.342;6.338;2023-06-14T08:34:16;3.02;;;1.98;;
26516;SDS011;14190;51.342;6.338;2023-06-14T08:36:43;11.70;;;3.08;;
26516;SDS011;14190;51.342;6.338;2023-06-14T08:39:11;5.72;;;2.25;;
26516;SDS011;14190;51.342;6.338;2023-06-14T08:41:38;5.20;;;2.87;;
26516;SDS011;14190;51.342;6.338;2023-06-14T08:44:05;6.08;;;2.20;;
26516;SDS011;14190;51.342;6.338;2023-06-14T08:46:33;3.27;;;2.37;;
26516;SDS011;14190;51.342;6.338;2023-06-14T08:49:02;5.90;;;2.08;;
26516;SDS011;14190;51.342;6.338;2023-06-14T08:51:32;4.67;;;2.30;;
26516;SDS011;14190;51.342;6.338;2023-06-14T08:54:03;5.42;;;2.65;;
26516;SDS011;14190;51.342;6.338;2023-06-14T08:56:31;5.00;;;2.55;;
26516;SDS011;14190;51.342;6.338;2023-06-14T08:59:00;3.57;;;2.33;;
26516;SDS011;14190;51.342;6.338;2023-06-14T09:01:38;4.15;;;1.98;;
26516;SDS011;14190;51.342;6.338;2023-06-14T09:03:58;5.67;;;2.47;;
26516;SDS011;14190;51.342;6.338;2023-06-14T09:06:26;5.40;;;2.55;;
26516;SDS011;14190;51.342;6.338;2023-06-14T09:08:54;4.50;;;2.67;;
26516;SDS011;14190;51.342;6.338;2023-06-14T09:11:24;8.50;;;2.33;;
26516;SDS011;14190;51.342;6.338;2023-06-14T09:13:53;5.35;;;2.17;;
26516;SDS011;14190;51.342;6.338;2023-06-14T09:16:20;3.77;;;2.42;;
26516;SDS011;14190;51.342;6.338;2023-06-14T09:18:47;8.55;;;2.30;;
26516;SDS011;14190;51.342;6.338;2023-06-14T09:21:15;6.53;;;2.50;;
26516;SDS011;14190;51.342;6.338;2023-06-14T09:23:43;11.68;;;2.35;;
26516;SDS011;14190;51.342;6.338;2023-06-14T09:26:12;4.20;;;2.75;;
26516;SDS011;14190;51.342;6.338;2023-06-14T09:28:46;5.80;;;2.72;;
26516;SDS011;14190;51.342;6.338;2023-06-14T09:31:15;4.20;;;2.65;;
26516;SDS011;14190;51.342;6.338;2023-06-14T09:33:43;6.42;;;3.00;;
26516;SDS011;14190;51.342;6.338;2023-06-14T09:36:18;4.20;;;2.75;;
26516;SDS011;14190;51.342;6.338;2023-06-14T09:38:57;4.65;;;2.90;;
26516;SDS011;14190;51.342;6.338;2023-06-14T09:41:31;8.80;;;3.25;;
26516;SDS011;14190;51.342;6.338;2023-06-14T09:43:59;7.10;;;2.80;;
26516;SDS011;14190;51.342;6.338;2023-06-14T09:46:29;5.90;;;2.60;;
26516;SDS011;14190;51.342;6.338;2023-06-14T09:48:57;5.53;;;2.52;;
26516;SDS011;14190;51.342;6.338;2023-06-14T09:51:25;5.78;;;2.62;;
26516;SDS011;14190;51.342;6.338;2023-06-14T09:53:52;7.60;;;2.80;;
26516;SDS011;14190;51.342;6.338;2023-06-14T09:56:29;2.95;;;2.30;;
26516;SDS011;14190;51.342;6.338;2023-06-14T09:58:57;3.90;;;2.30;;
26516;SDS011;14190;51.342;6.338;2023-06-14T10:01:25;3.35;;;2.33;;
26516;SDS011;14190;51.342;6.338;2023-06-14T10:03:59;10.63;;;2.80;;
26516;SDS011;14190;51.342;6.338;2023-06-14T10:06:24;6.33;;;2.62;;
26516;SDS011;14190;51.342;6.338;2023-06-14T10:08:53;4.40;;;2.20;;
26516;SDS011;14190;51.342;6.338;2023-06-14T10:11:22;5.75;;;2.45;;
26516;SDS011;14190;51.342;6.338;2023-06-14T10:13:50;7.20;;;2.08;;
26516;SDS011;14190;51.342;6.338;2023-06-14T10:16:26;6.62;;;2.12;;
26516;SDS011;14190;51.342;6.338;2023-06-14T10:24:05;4.58;;;2.45;;
26516;SDS011;14190;51.342;6.338;2023-06-14T10:26:34;6.95;;;2.83;;
26516;SDS011;14190;51.342;6.338;2023-06-14T10:29:07;8.20;;;2.45;;
26516;SDS011;14190;51.342;6.338;2023-06-14T10:31:42;6.53;;;2.70;;
26516;SDS011;14190;51.342;6.338;2023-06-14T10:34:10;7.67;;;2.85;;
26516;SDS011;14190;51.342;6.338;2023-06-14T10:36:38;5.60;;;2.47;;
26516;SDS011;14190;51.342;6.338;2023-06-14T10:39:12;3.75;;;2.67;;
26516;SDS011;14190;51.342;6.338;2023-06-14T10:41:39;4.15;;;2.95;;
26516;SDS011;14190;51.342;6.338;2023-06-14T10:46:48;32.17;;;3.00;;
26516;SDS011;14190;51.342;6.338;2023-06-14T10:49:17;9.95;;;2.87;;
26516;SDS011;14190;51.342;6.338;2023-06-14T10:51:54;3.83;;;2.58;;
26516;SDS011;14190;51.342;6.338;2023-06-14T10:54:14;8.40;;;2.40;;
26516;SDS011;14190;51.342;6.338;2023-06-14T10:56:48;4.35;;;2.40;;
26516;SDS011;14190;51.342;6.338;2023-06-14T10:59:16;2.25;;;2.02;;
26516;SDS011;14190;51.342;6.338;2023-06-14T11:04:23;5.50;;;2.45;;
26516;SDS011;14190;51.342;6.338;2023-06-14T11:06:51;3.22;;;2.05;;
26516;SDS011;14190;51.342;6.338;2023-06-14T11:11:54;3.45;;;2.00;;
26516;SDS011;14190;51.342;6.338;2023-06-14T11:14:23;5.08;;;1.98;;
26516;SDS011;14190;51.342;6.338;2023-06-14T11:16:50;2.22;;;1.90;;
26516;SDS011;14190;51.342;6.338;2023-06-14T11:19:18;2.20;;;1.77;;
26516;SDS011;14190;51.342;6.338;2023-06-14T11:21:48;4.40;;;2.10;;
26516;SDS011;14190;51.342;6.338;2023-06-14T11:24:16;2.27;;;1.77;;
26516;SDS011;14190;51.342;6.338;2023-06-14T11:26:44;4.53;;;1.87;;
26516;SDS011;14190;51.342;6.338;2023-06-14T11:29:11;6.50;;;2.37;;
26516;SDS011;14190;51.342;6.338;2023-06-14T11:31:42;4.62;;;1.70;;
26516;SDS011;14190;51.342;6.338;2023-06-14T11:34:08;2.55;;;1.70;;
26516;SDS011;14190;51.342;6.338;2023-06-14T11:36:35;8.95;;;2.40;;
26516;SDS011;14190;51.342;6.338;2023-06-14T11:39:03;3.05;;;2.02;;
26516;SDS011;14190;51.342;6.338;2023-06-14T11:44:00;5.17;;;1.85;;
26516;SDS011;14190;51.342;6.338;2023-06-14T11:46:28;2.55;;;1.90;;
26516;SDS011;14190;51.342;6.338;2023-06-14T11:48:56;6.28;;;1.90;;
26516;SDS011;14190;51.342;6.338;2023-06-14T11:51:23;5.33;;;1.67;;
26516;SDS011;14190;51.342;6.338;2023-06-14T11:53:50;3.62;;;1.60;;
26516;SDS011;14190;51.342;6.338;2023-06-14T11:56:18;8.45;;;2.17;;
26516;SDS011;14190;51.342;6.338;2023-06-14T11:58:46;4.75;;;1.50;;
26516;SDS011;14190;51.342;6.338;2023-06-14T12:01:18;2.17;;;1.32;;
26516;SDS011;14190;51.342;6.338;2023-06-14T12:03:49;5.87;;;1.35;;
26516;SDS011;14190;51.342;6.338;2023-06-14T12:06:17;5.80;;;1.47;;
26516;SDS011;14190;51.342;6.338;2023-06-14T12:08:45;3.83;;;1.30;;
26516;SDS011;14190;51.342;6.338;2023-06-14T12:11:14;4.37;;;1.87;;
26516;SDS011;14190;51.342;6.338;2023-06-14T12:13:44;4.95;;;1.22;;
26516;SDS011;14190;51.342;6.338;2023-06-14T12:16:11;4.08;;;1.95;;
26516;SDS011;14190;51.342;6.338;2023-06-14T12:18:39;3.65;;;1.25;;
26516;SDS011;14190;51.342;6.338;2023-06-14T12:21:09;4.62;;;1.35;;
26516;SDS011;14190;51.342;6.338;2023-06-14T12:23:44;4.53;;;1.87;;
26516;SDS011;14190;51.342;6.338;2023-06-14T12:26:15;4.25;;;1.40;;
26516;SDS011;14190;51.342;6.338;2023-06-14T12:28:44;5.15;;;1.65;;
26516;SDS011;14190;51.342;6.338;2023-06-14T12:31:12;2.35;;;1.92;;
26516;SDS011;14190;51.342;6.338;2023-06-14T12:33:39;4.45;;;1.77;;
26516;SDS011;14190;51.342;6.338;2023-06-14T12:36:07;8.65;;;1.72;;
26516;SDS011;14190;51.342;6.338;2023-06-14T12:38:35;3.52;;;1.50;;
26516;SDS011;14190;51.342;6.338;2023-06-14T12:41:03;1.90;;;1.60;;
26516;SDS011;14190;51.342;6.338;2023-06-14T12:43:31;4.10;;;1.70;;
26516;SDS011;14190;51.342;6.338;2023-06-14T12:45:58;4.10;;;1.75;;
26516;SDS011;14190;51.342;6.338;2023-06-14T12:48:26;5.15;;;2.33;;
26516;SDS011;14190;51.342;6.338;2023-06-14T12:50:54;5.50;;;2.02;;
26516;SDS011;14190;51.342;6.338;2023-06-14T12:53:21;6.37;;;1.90;;
26516;SDS011;14190;51.342;6.338;2023-06-14T12:55:49;2.75;;;1.90;;
26516;SDS011;14190;51.342;6.338;2023-06-14T12:58:17;11.35;;;1.60;;
26516;SDS011;14190;51.342;6.338;2023-06-14T13:00:46;1.62;;;1.47;;
26516;SDS011;14190;51.342;6.338;2023-06-14T13:03:13;3.08;;;1.52;;
26516;SDS011;14190;51.342;6.338;2023-06-14T13:05:41;3.72;;;1.72;;
26516;SDS011;14190;51.342;6.338;2023-06-14T13:08:09;5.83;;;1.95;;
26516;SDS011;14190;51.342;6.338;2023-06-14T13:10:36;5.92;;;1.70;;
26516;SDS011;14190;51.342;6.338;2023-06-14T13:13:04;2.77;;;1.72;;
26516;SDS011;14190;51.342;6.338;2023-06-14T13:15:33;4.03;;;2.17;;
26516;SDS011;14190;51.342;6.338;2023-06-14T13:18:01;5.35;;;1.72;;
26516;SDS011;14190;51.342;6.338;2023-06-14T13:20:30;5.83;;;1.82;;
26516;SDS011;14190;51.342;6.338;2023-06-14T13:22:59;8.08;;;1.98;;
26516;SDS011;14190;51.342;6.338;2023-06-14T13:25:28;2.83;;;2.12;;
26516;SDS011;14190;51.342;6.338;2023-06-14T13:27:55;3.30;;;1.87;;
26516;SDS011;14190;51.342;6.338;2023-06-14T13:30:23;3.90;;;1.60;;
26516;SDS011;14190;51.342;6.338;2023-06-14T13:32:51;4.95;;;1.60;;
26516;SDS011;14190;51.342;6.338;2023-06-14T13:35:23;5.28;;;2.02;;
26516;SDS011;14190;51.342;6.338;2023-06-14T13:37:47;8.27;;;1.90;;
26516;SDS011;14190;51.342;6.338;2023-06-14T13:40:15;1.65;;;1.55;;
26516;SDS011;14190;51.342;6.338;2023-06-14T13:42:42;3.40;;;1.62;;
26516;SDS011;14190;51.342;6.338;2023-06-14T13:45:10;4.20;;;1.82;;
26516;SDS011;14190;51.342;6.338;2023-06-14T13:47:38;5.58;;;1.77;;
26516;SDS011;14190;51.342;6.338;2023-06-14T13:50:05;4.50;;;1.82;;
26516;SDS011;14190;51.342;6.338;2023-06-14T13:52:33;7.33;;;2.55;;
26516;SDS011;14190;51.342;6.338;2023-06-14T13:55:02;6.80;;;2.12;;
26516;SDS011;14190;51.342;6.338;2023-06-14T13:57:30;3.20;;;1.67;;
26516;SDS011;14190;51.342;6.338;2023-06-14T13:59:58;3.27;;;2.22;;
26516;SDS011;14190;51.342;6.338;2023-06-14T14:02:27;3.77;;;2.17;;
26516;SDS011;14190;51.342;6.338;2023-06-14T14:04:55;2.95;;;1.90;;
26516;SDS011;14190;51.342;6.338;2023-06-14T14:07:23;2.77;;;2.05;;
26516;SDS011;14190;51.342;6.338;2023-06-14T14:09:51;3.30;;;2.20;;
26516;SDS011;14190;51.342;6.338;2023-06-14T14:12:19;5.83;;;2.58;;
26516;SDS011;14190;51.342;6.338;2023-06-14T14:14:47;7.15;;;2.30;;
26516;SDS011;14190;51.342;6.338;2023-06-14T14:17:14;6.58;;;2.17;;
26516;SDS011;14190;51.342;6.338;2023-06-14T14:19:42;10.60;;;2.37;;
26516;SDS011;14190;51.342;6.338;2023-06-14T14:22:09;4.17;;;2.20;;
26516;SDS011;14190;51.342;6.338;2023-06-14T14:24:37;6.17;;;2.20;;
26516;SDS011;14190;51.342;6.338;2023-06-14T14:27:04;5.00;;;2.00;;
26516;SDS011;14190;51.342;6.338;2023-06-14T14:29:33;5.83;;;2.35;;
26516;SDS011;14190;51.342;6.338;2023-06-14T14:32:00;6.03;;;2.10;;
26516;SDS011;14190;51.342;6.338;2023-06-14T14:34:27;4.05;;;2.00;;
26516;SDS011;14190;51.342;6.338;2023-06-14T14:36:55;4.85;;;2.47;;
26516;SDS011;14190;51.342;6.338;2023-06-14T14:39:23;5.62;;;2.37;;
26516;SDS011;14190;51.342;6.338;2023-06-14T14:41:50;3.85;;;2.65;;
26516;SDS011;14190;51.342;6.338;2023-06-14T14:44:18;4.08;;;2.30;;
26516;SDS011;14190;51.342;6.338;2023-06-14T14:46:45;7.22;;;2.20;;
26516;SDS011;14190;51.342;6.338;2023-06-14T14:49:13;3.22;;;2.27;;
26516;SDS011;14190;51.342;6.338;2023-06-14T14:51:40;6.33;;;2.55;;
26516;SDS011;14190;51.342;6.338;2023-06-14T14:54:08;5.17;;;2.27;;
26516;SDS011;14190;51.342;6.338;2023-06-14T14:56:35;4.28;;;2.12;;
26516;SDS011;14190;51.342;6.338;2023-06-14T14:59:04;3.02;;;2.08;;
26516;SDS011;14190;51.342;6.338;2023-06-14T15:01:31;4.80;;;2.45;;
26516;SDS011;14190;51.342;6.338;2023-06-14T15:03:58;5.87;;;2.45;;
26516;SDS011;14190;51.342;6.338;2023-06-14T15:06:26;5.33;;;2.47;;
26516;SDS011;14190;51.342;6.338;2023-06-14T15:08:53;2.33;;;2.00;;